PWSweather.com
Personal Weather Stations
Station Observations
KVAGLENALL
West Henrico, Glen Allen, VA 23060-6503

West HenricoGlen Allen, VA 23060-6503

Lat: 37.6554, Lon: -77.5693

Elevation: 273

Station Type: Davis Vantage Pro II

Latest ConditionsUpdated 10:30:15 AM EDT Saturday, Apr 19, 2014
Currently Today's Max Today's Min Today's Average
Temperature 54.2°F12.3°C 54.2°F12.3°C 46.2°F7.9°C 47.5°F8.6°C
Dew Point 41.5°F5.3°C 43.3°F6.3°C 39.5°F4.2°C 42.0°F5.6°C
Winds 1.0 mph N1.6 kmh N 12.0 mph NE19.3 kmh NE - 1.1 mph 1.8 kmh
Wind Gusts 11.0 mph17.7 kmh 12.0 mph19.3 kmh - -
Humidity 62% 87% 62% 81%
Pressure 30.27 in1025.1 mb 30.30 in1026.1 mb 30.21 in1023.0 mb -
Hour Temp Dew Point Humidity Winds Wind Gusts Pressure Precip Precip Rate Daily Precip Total
10:30 AM 54.2°F12.3°C 41.5°F5.3°C 62% 1.0 mph N1.6 kmh N 11.0 mph17.7 kmh 30.27 in1025.1 mb 0.00 in0.0 mm 0.00 in/hr0.0 mm/hr 0.00 in0.0 mm
10:15 AM 52.8°F11.6°C 42.2°F5.7°C 67% 12.0 mph NE19.3 kmh NE 12.0 mph19.3 kmh 30.27 in1025.1 mb 0.00 in0.0 mm 0.00 in/hr0.0 mm/hr 0.00 in0.0 mm
10:00 AM 51.0°F10.6°C 42.0°F5.6°C 71% 10.0 mph NE16.1 kmh NE 10.0 mph16.1 kmh 30.28 in1025.4 mb 0.00 in0.0 mm 0.00 in/hr0.0 mm/hr 0.00 in0.0 mm
09:45 AM 49.8°F9.9°C 42.6°F5.9°C 76% 4.0 mph ENE6.4 kmh ENE 10.0 mph16.1 kmh 30.28 in1025.4 mb 0.00 in0.0 mm 0.00 in/hr0.0 mm/hr 0.00 in0.0 mm
09:30 AM 49.1°F9.5°C 42.3°F5.7°C 77% 1.0 mph ENE1.6 kmh ENE 10.0 mph16.1 kmh 30.28 in1025.4 mb 0.00 in0.0 mm 0.00 in/hr0.0 mm/hr 0.00 in0.0 mm
09:15 AM 48.6°F9.2°C 42.8°F6.0°C 80% 3.0 mph NE4.8 kmh NE 6.0 mph9.7 kmh 30.27 in1025.1 mb 0.00 in0.0 mm 0.00 in/hr0.0 mm/hr 0.00 in0.0 mm
09:00 AM 48.0°F8.9°C 43.2°F6.2°C 83% Calm Calm 3.0 mph4.8 kmh 30.28 in1025.4 mb 0.00 in0.0 mm 0.00 in/hr0.0 mm/hr 0.00 in0.0 mm
08:45 AM 47.6°F8.7°C 43.1°F6.2°C 84% 2.0 mph NE3.2 kmh NE 3.0 mph4.8 kmh 30.28 in1025.4 mb 0.00 in0.0 mm 0.00 in/hr0.0 mm/hr 0.00 in0.0 mm
08:30 AM 47.3°F8.5°C 43.1°F6.2°C 85% 1.0 mph SE1.6 kmh SE 1.0 mph1.6 kmh 30.27 in1025.1 mb 0.00 in0.0 mm 0.00 in/hr0.0 mm/hr 0.00 in0.0 mm
08:15 AM 46.8°F8.2°C 43.0°F6.1°C 86% Calm Calm 1.0 mph1.6 kmh 30.27 in1025.1 mb 0.00 in0.0 mm 0.00 in/hr0.0 mm/hr 0.00 in0.0 mm
08:00 AM 46.8°F8.2°C 43.3°F6.3°C 87% 2.0 mph NE3.2 kmh NE 2.0 mph3.2 kmh 30.26 in1024.7 mb 0.00 in0.0 mm 0.00 in/hr0.0 mm/hr 0.00 in0.0 mm
07:45 AM 46.7°F8.2°C 43.2°F6.2°C 87% 3.0 mph NE4.8 kmh NE 3.0 mph4.8 kmh 30.25 in1024.4 mb 0.00 in0.0 mm 0.00 in/hr0.0 mm/hr 0.00 in0.0 mm
07:30 AM 46.7°F8.2°C 43.2°F6.2°C 87% 3.0 mph NE4.8 kmh NE 5.0 mph8.0 kmh 30.25 in1024.4 mb 0.00 in0.0 mm 0.00 in/hr0.0 mm/hr 0.00 in0.0 mm
07:15 AM 46.5°F8.1°C 43.0°F6.1°C 87% Calm Calm 3.0 mph4.8 kmh 30.25 in1024.4 mb 0.00 in0.0 mm 0.00 in/hr0.0 mm/hr 0.00 in0.0 mm
07:00 AM 46.4°F8.0°C 42.9°F6.1°C 87% Calm Calm -- 30.25 in1024.4 mb 0.00 in0.0 mm 0.00 in/hr0.0 mm/hr 0.00 in0.0 mm
06:45 AM 46.4°F8.0°C 42.6°F5.9°C 86% Calm Calm 1.0 mph1.6 kmh 30.24 in1024.0 mb 0.00 in0.0 mm 0.00 in/hr0.0 mm/hr 0.00 in0.0 mm
06:30 AM 46.4°F8.0°C 42.9°F6.1°C 87% Calm Calm 1.0 mph1.6 kmh 30.23 in1023.7 mb 0.00 in0.0 mm 0.00 in/hr0.0 mm/hr 0.00 in0.0 mm
06:15 AM 46.2°F7.9°C 42.4°F5.8°C 86% Calm Calm -- 30.23 in1023.7 mb 0.00 in0.0 mm 0.00 in/hr0.0 mm/hr 0.00 in0.0 mm
06:00 AM 46.4°F8.0°C 42.6°F5.9°C 86% 1.0 mph ESE1.6 kmh ESE 1.0 mph1.6 kmh 30.22 in1023.4 mb 0.00 in0.0 mm 0.00 in/hr0.0 mm/hr 0.00 in0.0 mm
05:45 AM 46.4°F8.0°C 42.6°F5.9°C 86% Calm Calm 2.0 mph3.2 kmh 30.22 in1023.4 mb 0.00 in0.0 mm 0.00 in/hr0.0 mm/hr 0.00 in0.0 mm
05:30 AM 46.4°F8.0°C 42.6°F5.9°C 86% Calm Calm -- 30.22 in1023.4 mb 0.00 in0.0 mm 0.00 in/hr0.0 mm/hr 0.00 in0.0 mm
05:15 AM 46.4°F8.0°C 42.6°F5.9°C 86% 1.0 mph ESE1.6 kmh ESE 1.0 mph1.6 kmh 30.22 in1023.4 mb 0.00 in0.0 mm 0.00 in/hr0.0 mm/hr 0.00 in0.0 mm
05:00 AM 46.4°F8.0°C 42.3°F5.7°C 85% Calm Calm 1.0 mph1.6 kmh 30.22 in1023.4 mb 0.00 in0.0 mm 0.00 in/hr0.0 mm/hr 0.00 in0.0 mm
04:45 AM 46.4°F8.0°C 42.3°F5.7°C 85% Calm Calm 1.0 mph1.6 kmh 30.22 in1023.4 mb 0.00 in0.0 mm 0.00 in/hr0.0 mm/hr 0.00 in0.0 mm
04:30 AM 46.4°F8.0°C 42.3°F5.7°C 85% Calm Calm 1.0 mph1.6 kmh 30.22 in1023.4 mb 0.00 in0.0 mm 0.00 in/hr0.0 mm/hr 0.00 in0.0 mm
04:15 AM 46.5°F8.1°C 42.4°F5.8°C 85% Calm Calm 1.0 mph1.6 kmh 30.21 in1023.0 mb 0.00 in0.0 mm 0.00 in/hr0.0 mm/hr 0.00 in0.0 mm
04:00 AM 46.5°F8.1°C 42.0°F5.6°C 84% 1.0 mph ESE1.6 kmh ESE 3.0 mph4.8 kmh 30.21 in1023.0 mb 0.00 in0.0 mm 0.00 in/hr0.0 mm/hr 0.00 in0.0 mm
03:45 AM 46.7°F8.2°C 42.2°F5.7°C 84% Calm Calm 1.0 mph1.6 kmh 30.22 in1023.4 mb 0.00 in0.0 mm 0.00 in/hr0.0 mm/hr 0.00 in0.0 mm
03:30 AM 46.8°F8.2°C 42.0°F5.6°C 83% Calm Calm 2.0 mph3.2 kmh 30.22 in1023.4 mb 0.00 in0.0 mm 0.00 in/hr0.0 mm/hr 0.00 in0.0 mm
03:15 AM 46.8°F8.2°C 42.0°F5.6°C 83% 1.0 mph NE1.6 kmh NE 3.0 mph4.8 kmh 30.22 in1023.4 mb 0.00 in0.0 mm 0.00 in/hr0.0 mm/hr 0.00 in0.0 mm
03:00 AM 46.8°F8.2°C 42.0°F5.6°C 83% Calm Calm 1.0 mph1.6 kmh 30.24 in1024.0 mb 0.00 in0.0 mm 0.00 in/hr0.0 mm/hr 0.00 in0.0 mm
02:45 AM 47.0°F8.3°C 41.9°F5.5°C 82% Calm Calm -- 30.24 in1024.0 mb 0.00 in0.0 mm 0.00 in/hr0.0 mm/hr 0.00 in0.0 mm
02:30 AM 47.3°F8.5°C 41.9°F5.5°C 81% Calm Calm -- 30.23 in1023.7 mb 0.00 in0.0 mm 0.00 in/hr0.0 mm/hr 0.00 in0.0 mm
02:15 AM 47.4°F8.6°C 41.6°F5.3°C 80% Calm Calm -- 30.23 in1023.7 mb 0.00 in0.0 mm 0.00 in/hr0.0 mm/hr 0.00 in0.0 mm
02:00 AM 47.4°F8.6°C 41.3°F5.2°C 79% 2.0 mph ESE3.2 kmh ESE 3.0 mph4.8 kmh 30.24 in1024.0 mb 0.00 in0.0 mm 0.00 in/hr0.0 mm/hr 0.00 in0.0 mm
01:45 AM 47.4°F8.6°C 41.0°F5.0°C 78% Calm Calm 2.0 mph3.2 kmh 30.25 in1024.4 mb 0.00 in0.0 mm 0.00 in/hr0.0 mm/hr 0.00 in0.0 mm
01:30 AM 47.6°F8.7°C 40.8°F4.9°C 77% Calm Calm 2.0 mph3.2 kmh 30.25 in1024.4 mb 0.00 in0.0 mm 0.00 in/hr0.0 mm/hr 0.00 in0.0 mm
01:15 AM 47.3°F8.5°C 40.6°F4.8°C 77% Calm Calm 3.0 mph4.8 kmh 30.26 in1024.7 mb 0.00 in0.0 mm 0.00 in/hr0.0 mm/hr 0.00 in0.0 mm
01:00 AM 47.4°F8.6°C 40.3°F4.6°C 76% Calm Calm 1.0 mph1.6 kmh 30.27 in1025.1 mb 0.00 in0.0 mm 0.00 in/hr0.0 mm/hr 0.00 in0.0 mm
12:45 AM 47.6°F8.7°C 40.2°F4.6°C 75% Calm Calm -- 30.28 in1025.4 mb 0.00 in0.0 mm 0.00 in/hr0.0 mm/hr 0.00 in0.0 mm
12:30 AM 47.6°F8.7°C 40.2°F4.6°C 75% Calm Calm 1.0 mph1.6 kmh 30.29 in1025.7 mb 0.00 in0.0 mm 0.00 in/hr0.0 mm/hr 0.00 in0.0 mm
12:15 AM 47.6°F8.7°C 39.8°F4.3°C 74% Calm Calm 1.0 mph1.6 kmh 30.29 in1025.7 mb 0.00 in0.0 mm 0.00 in/hr0.0 mm/hr 0.00 in0.0 mm
12:00 AM 48.0°F8.9°C 39.5°F4.2°C 72% Calm Calm -- 30.30 in1026.1 mb 0.00 in0.0 mm 0.00 in/hr0.0 mm/hr 0.00 in0.0 mm